Time,TemperatureF,DewpointF,PressureIn,WindDirection,WindDirectionDegrees,WindSpeedMPH,WindSpeedGustMPH,Humidity,HourlyPrecipIn,Conditions,Clouds,dailyrainin,SoftwareType,DateUTC
2015-01-25 00:00:00,36.1,34.5,29.71,SW,222,0.0,4.0,94,0.00,,---,0.00,VWS V14.01,2015-01-25 05:00:00,
2015-01-25 00:30:00,36.1,34.5,29.71,SW,219,1.0,4.0,94,0.00,,---,0.00,VWS V14.01,2015-01-25 05:30:00,
2015-01-25 01:00:00,36.0,34.4,29.70,South,174,0.0,5.0,94,0.00,,---,0.00,VWS V14.01,2015-01-25 06:00:00,
2015-01-25 01:30:00,34.9,33.6,29.70,ESE,121,0.0,1.0,95,0.00,,---,0.00,VWS V14.01,2015-01-25 06:30:00,
2015-01-25 02:00:00,34.1,33.1,29.70,ESE,122,0.0,1.0,96,0.00,,---,0.00,VWS V14.01,2015-01-25 07:00:00,
2015-01-25 02:30:00,33.5,32.5,29.71,ESE,121,0.0,0.0,96,0.00,,---,0.00,VWS V14.01,2015-01-25 07:30:00,
2015-01-25 03:00:00,34.2,33.2,29.71,ESE,121,0.0,0.0,96,0.00,,---,0.00,VWS V14.01,2015-01-25 08:00:00,
2015-01-25 03:30:00,34.5,33.5,29.71,ESE,122,0.0,0.0,96,0.00,,---,0.00,VWS V14.01,2015-01-25 08:30:00,
2015-01-25 04:00:00,34.3,33.3,29.70,ESE,121,0.0,0.0,96,0.00,,---,0.00,VWS V14.01,2015-01-25 09:00:00,
2015-01-25 04:30:00,34.3,33.3,29.70,ESE,121,0.0,0.0,96,0.00,,---,0.00,VWS V14.01,2015-01-25 09:30:00,
2015-01-25 05:00:00,33.4,32.4,29.70,ESE,122,0.0,0.0,96,0.00,,---,0.00,VWS V14.01,2015-01-25 10:00:00,
2015-01-25 05:30:00,32.9,31.9,29.70,ESE,122,0.0,0.0,96,0.00,,---,0.00,VWS V14.01,2015-01-25 10:30:00,
2015-01-25 06:00:00,32.8,32.0,29.71,ESE,121,0.0,0.0,97,0.00,,---,0.00,VWS V14.01,2015-01-25 11:00:00,
2015-01-25 06:30:00,33.1,32.3,29.71,ESE,121,0.0,0.0,97,0.00,,---,0.00,VWS V14.01,2015-01-25 11:30:00,
2015-01-25 07:00:00,33.9,33.1,29.72,ESE,121,0.0,0.0,97,0.00,,---,0.00,VWS V14.01,2015-01-25 12:00:00,
2015-01-25 07:30:00,34.1,33.3,29.72,ESE,121,0.0,0.0,97,0.00,,---,0.00,VWS V14.01,2015-01-25 12:30:00,
2015-01-25 08:00:00,34.2,33.4,29.73,East,100,0.0,2.0,97,0.00,,---,0.00,VWS V14.01,2015-01-25 13:00:00,
2015-01-25 08:30:00,34.7,33.9,29.74,SE,124,1.0,3.0,97,0.00,,---,0.00,VWS V14.01,2015-01-25 13:30:00,
2015-01-25 09:00:00,34.9,33.9,29.74,NE,44,0.0,4.0,96,0.00,,---,0.00,VWS V14.01,2015-01-25 14:00:00,
2015-01-25 09:30:00,35.5,34.5,29.75,ESE,104,0.0,4.0,96,0.00,,---,0.00,VWS V14.01,2015-01-25 14:30:00,
2015-01-25 10:00:00,36.0,35.0,29.74,East,94,3.0,8.0,96,0.00,,---,0.00,VWS V14.01,2015-01-25 15:00:00,
2015-01-25 10:30:00,35.6,34.6,29.75,SE,124,1.0,10.0,96,0.01,,---,0.01,VWS V14.01,2015-01-25 15:30:00,
2015-01-25 11:00:00,34.7,33.7,29.76,ESE,103,3.0,12.0,96,0.01,,---,0.01,VWS V14.01,2015-01-25 16:00:00,
2015-01-25 11:30:00,34.2,32.9,29.76,East,100,5.0,10.0,95,0.01,,---,0.01,VWS V14.01,2015-01-25 16:30:00,
2015-01-25 12:00:00,32.3,30.8,29.76,East,89,6.0,15.0,94,0.01,,---,0.02,VWS V14.01,2015-01-25 17:00:00,